KCOU/COU METAR and TAF weather

Enter ICAO airport designator
Station Type Date Time Source
KCOU METAR 2019/12/13 13:54 UTC NOAA

KCOU 131354Z 18004KT 10SM OVC055 03/M03 A2993 RMK AO2 SLP140 T00331033


Station Type Date Time Source
KCOU Decoded METAR 2019/12/13 13:54 UTC NOAA

COLUMBIA REGIONAL AIRPORT, MO, United States (KCOU) 38-49N 092-13W 271M
Dec 13, 2019 - 08:54 AM EST / 2019.12.13 1354 UTC
Wind: from the S (180 degrees) at 5 MPH (4 KT):0
Visibility: 10 mile(s):0
Sky conditions: overcast
Temperature: 37.9 F (3.3 C)
Dew Point: 26.1 F (-3.3 C)
Relative Humidity: 61%
Pressure (altimeter): 29.93 in. Hg (1013 hPa)
ob: KCOU 131354Z 18004KT 10SM OVC055 03/M03 A2993 RMK AO2 SLP140 T00331033
cycle: 14

Station Type Date Time Source
KCOU TAF 2019/12/13 12:22 UTC NOAA

TAF KCOU 131120Z 1312/1412 VRB04KT P6SM OVC050
FM140600 VRB04KT P6SM VCSH OVC025
FM141000 33009KT 5SM -RA OVC012

Example: see airport list